Sigas Ingrid — VRCQ6 — position and weather

sailwx.info

Track history (hours):
 
Tides and Currents Weather Stations Pressure Air Temp Water Temp Dewpoint Dewpoint Depression Visibility Wind Speed Wind Dir Waves Ship Positions

Sigas Ingrid

Last reported at 2015-Aug-03 22:33 UTC. Time now 2015-Sep-02 02:32 UTC.
Position N 03°17' E 100°35'.
Warning: this ship's position is 29 days out of date.

Length 100 m; draft 5.6 m.

Type: Ship (hazmat cat B). MMSI: 477658800.

Date/timePositionNaut miles runAvg speedWind from/ knotsBaromVisibWave heightAir tempDewpointWater temp
2015-Aug-03 22:33N 03°17' E 100°35'2512.5
2015-Aug-03 20:33N 02°59' E 100°52'1413.7
2015-Aug-03 19:34N 02°49' E 101°02'1514.8
2015-Aug-03 18:33N 02°43' E 101°15'1414.4
2015-Aug-03 17:33N 02°36' E 101°28'16412.6
2015-Aug-03 04:33N 01°11' E 103°48'1413.8
2015-Aug-03 03:33N 01°16' E 104°01'  
2015-Jul-30 14:27N 01°14' E 104°02'1112.3
2015-Jul-30 13:32N 01°11' E 103°51'157 5.4
2015-Jul-29 08:33N 02°28' E 101°34'2713.5
2015-Jul-29 06:33N 02°42' E 101°11'1313.1
2015-Jul-29 05:33N 02°48' E 100°60'2612.7
2015-Jul-29 03:32N 03°06' E 100°41'  
Track history (hours):
 
Tides and Currents Weather Stations Pressure Air Temp Water Temp Dewpoint Dewpoint Depression Visibility Wind Speed Wind Dir Waves Ship Positions

Sigas Ingrid

Last reported at 2015-Aug-03 22:33 UTC. Time now 2015-Sep-02 02:32 UTC.
Position N 03°17' E 100°35'.
Warning: this ship's position is 29 days out of date.

Length 100 m; draft 5.6 m.

Type: Ship (hazmat cat B). MMSI: 477658800.

Date/timePositionNaut miles runAvg speedWind from/ knotsBaromVisibWave heightAir tempDewpointWater temp
2015-Aug-03 22:33N 03°17' E 100°35'2512.5
2015-Aug-03 20:33N 02°59' E 100°52'1413.7
2015-Aug-03 19:34N 02°49' E 101°02'1514.8
2015-Aug-03 18:33N 02°43' E 101°15'1414.4
2015-Aug-03 17:33N 02°36' E 101°28'16412.6
2015-Aug-03 04:33N 01°11' E 103°48'1413.8
2015-Aug-03 03:33N 01°16' E 104°01'  
2015-Jul-30 14:27N 01°14' E 104°02'1112.3
2015-Jul-30 13:32N 01°11' E 103°51'157 5.4
2015-Jul-29 08:33N 02°28' E 101°34'2713.5
2015-Jul-29 06:33N 02°42' E 101°11'1313.1
2015-Jul-29 05:33N 02°48' E 100°60'2612.7
2015-Jul-29 03:32N 03°06' E 100°41'  

Dump ship's entire track history